sensor_id;sensor_type;location;lat;lon;timestamp;P1;durP1;ratioP1;P2;durP2;ratioP2
17598;SDS011;8918;52.092;5.232;2023-06-14T00:00:06;8.07;;;3.75;;
17598;SDS011;8918;52.092;5.232;2023-06-14T00:02:32;8.75;;;3.50;;
17598;SDS011;8918;52.092;5.232;2023-06-14T00:04:58;5.47;;;3.47;;
17598;SDS011;8918;52.092;5.232;2023-06-14T00:07:33;7.70;;;3.70;;
17598;SDS011;8918;52.092;5.232;2023-06-14T00:10:13;5.13;;;3.67;;
17598;SDS011;8918;52.092;5.232;2023-06-14T00:12:39;5.00;;;3.72;;
17598;SDS011;8918;52.092;5.232;2023-06-14T00:15:05;5.85;;;3.60;;
17598;SDS011;8918;52.092;5.232;2023-06-14T00:17:32;4.55;;;3.50;;
17598;SDS011;8918;52.092;5.232;2023-06-14T00:19:59;7.03;;;3.80;;
17598;SDS011;8918;52.092;5.232;2023-06-14T00:22:25;6.57;;;3.53;;
17598;SDS011;8918;52.092;5.232;2023-06-14T00:24:51;5.97;;;3.60;;
17598;SDS011;8918;52.092;5.232;2023-06-14T00:27:17;5.10;;;3.33;;
17598;SDS011;8918;52.092;5.232;2023-06-14T00:29:42;9.65;;;3.78;;
17598;SDS011;8918;52.092;5.232;2023-06-14T00:32:08;7.68;;;3.90;;
17598;SDS011;8918;52.092;5.232;2023-06-14T00:34:34;8.07;;;3.70;;
17598;SDS011;8918;52.092;5.232;2023-06-14T00:37:00;6.20;;;3.60;;
17598;SDS011;8918;52.092;5.232;2023-06-14T00:39:26;7.10;;;3.30;;
17598;SDS011;8918;52.092;5.232;2023-06-14T00:41:51;7.28;;;3.53;;
17598;SDS011;8918;52.092;5.232;2023-06-14T00:44:17;5.90;;;3.30;;
17598;SDS011;8918;52.092;5.232;2023-06-14T00:46:44;7.78;;;3.75;;
17598;SDS011;8918;52.092;5.232;2023-06-14T00:49:10;6.65;;;3.60;;
17598;SDS011;8918;52.092;5.232;2023-06-14T00:51:38;7.57;;;3.70;;
17598;SDS011;8918;52.092;5.232;2023-06-14T00:54:04;5.45;;;3.53;;
17598;SDS011;8918;52.092;5.232;2023-06-14T00:56:30;4.88;;;3.45;;
17598;SDS011;8918;52.092;5.232;2023-06-14T00:58:55;7.80;;;3.75;;
17598;SDS011;8918;52.092;5.232;2023-06-14T01:01:22;4.25;;;3.42;;
17598;SDS011;8918;52.092;5.232;2023-06-14T01:03:49;4.22;;;3.40;;
17598;SDS011;8918;52.092;5.232;2023-06-14T01:06:33;9.02;;;3.60;;
17598;SDS011;8918;52.092;5.232;2023-06-14T01:09:51;5.40;;;3.75;;
17598;SDS011;8918;52.092;5.232;2023-06-14T01:15:04;9.82;;;3.72;;
17598;SDS011;8918;52.092;5.232;2023-06-14T01:17:31;5.47;;;3.33;;
17598;SDS011;8918;52.092;5.232;2023-06-14T01:19:58;5.93;;;3.50;;
17598;SDS011;8918;52.092;5.232;2023-06-14T01:22:26;4.93;;;3.38;;
17598;SDS011;8918;52.092;5.232;2023-06-14T01:24:52;6.07;;;3.47;;
17598;SDS011;8918;52.092;5.232;2023-06-14T01:27:22;4.60;;;3.70;;
17598;SDS011;8918;52.092;5.232;2023-06-14T01:29:50;6.57;;;3.47;;
17598;SDS011;8918;52.092;5.232;2023-06-14T01:32:17;7.70;;;3.63;;
17598;SDS011;8918;52.092;5.232;2023-06-14T01:34:43;4.43;;;3.22;;
17598;SDS011;8918;52.092;5.232;2023-06-14T01:37:09;8.18;;;3.20;;
17598;SDS011;8918;52.092;5.232;2023-06-14T01:39:37;6.18;;;3.60;;
17598;SDS011;8918;52.092;5.232;2023-06-14T01:42:03;5.95;;;3.15;;
17598;SDS011;8918;52.092;5.232;2023-06-14T01:44:31;4.22;;;3.17;;
17598;SDS011;8918;52.092;5.232;2023-06-14T01:46:57;6.40;;;3.40;;
17598;SDS011;8918;52.092;5.232;2023-06-14T01:49:23;6.57;;;3.53;;
17598;SDS011;8918;52.092;5.232;2023-06-14T01:51:49;6.30;;;3.47;;
17598;SDS011;8918;52.092;5.232;2023-06-14T01:54:14;7.60;;;3.67;;
17598;SDS011;8918;52.092;5.232;2023-06-14T01:56:40;8.20;;;3.22;;
17598;SDS011;8918;52.092;5.232;2023-06-14T01:59:05;5.30;;;3.38;;
17598;SDS011;8918;52.092;5.232;2023-06-14T02:01:31;6.30;;;3.55;;
17598;SDS011;8918;52.092;5.232;2023-06-14T02:03:59;6.38;;;3.47;;
17598;SDS011;8918;52.092;5.232;2023-06-14T02:06:26;6.55;;;3.70;;
17598;SDS011;8918;52.092;5.232;2023-06-14T02:08:53;9.15;;;3.83;;
17598;SDS011;8918;52.092;5.232;2023-06-14T02:11:18;8.30;;;3.53;;
17598;SDS011;8918;52.092;5.232;2023-06-14T02:13:44;4.57;;;3.45;;
17598;SDS011;8918;52.092;5.232;2023-06-14T02:16:10;3.95;;;3.20;;
17598;SDS011;8918;52.092;5.232;2023-06-14T02:18:36;11.73;;;3.83;;
17598;SDS011;8918;52.092;5.232;2023-06-14T02:21:01;7.90;;;3.30;;
17598;SDS011;8918;52.092;5.232;2023-06-14T02:23:27;5.25;;;3.63;;
17598;SDS011;8918;52.092;5.232;2023-06-14T02:25:52;6.70;;;3.60;;
17598;SDS011;8918;52.092;5.232;2023-06-14T02:28:18;6.53;;;3.67;;
17598;SDS011;8918;52.092;5.232;2023-06-14T02:30:43;6.97;;;3.80;;
17598;SDS011;8918;52.092;5.232;2023-06-14T02:33:09;8.07;;;3.50;;
17598;SDS011;8918;52.092;5.232;2023-06-14T02:35:37;5.38;;;3.50;;
17598;SDS011;8918;52.092;5.232;2023-06-14T02:38:03;6.80;;;3.22;;
17598;SDS011;8918;52.092;5.232;2023-06-14T02:40:29;5.60;;;3.40;;
17598;SDS011;8918;52.092;5.232;2023-06-14T02:42:54;6.00;;;3.33;;
17598;SDS011;8918;52.092;5.232;2023-06-14T02:45:20;8.98;;;3.80;;
17598;SDS011;8918;52.092;5.232;2023-06-14T02:47:46;6.25;;;3.67;;
17598;SDS011;8918;52.092;5.232;2023-06-14T02:50:11;6.53;;;3.63;;
17598;SDS011;8918;52.092;5.232;2023-06-14T02:52:37;4.47;;;3.42;;
17598;SDS011;8918;52.092;5.232;2023-06-14T02:55:03;5.30;;;3.58;;
17598;SDS011;8918;52.092;5.232;2023-06-14T02:57:29;5.50;;;3.40;;
17598;SDS011;8918;52.092;5.232;2023-06-14T02:59:55;7.10;;;3.58;;
17598;SDS011;8918;52.092;5.232;2023-06-14T03:02:20;8.60;;;3.40;;
17598;SDS011;8918;52.092;5.232;2023-06-14T03:04:46;5.20;;;3.15;;
17598;SDS011;8918;52.092;5.232;2023-06-14T03:07:12;8.50;;;3.67;;
17598;SDS011;8918;52.092;5.232;2023-06-14T03:09:38;6.63;;;3.60;;
17598;SDS011;8918;52.092;5.232;2023-06-14T03:12:04;6.38;;;3.25;;
17598;SDS011;8918;52.092;5.232;2023-06-14T03:14:34;10.93;;;3.58;;
17598;SDS011;8918;52.092;5.232;2023-06-14T03:17:00;5.63;;;3.35;;
17598;SDS011;8918;52.092;5.232;2023-06-14T03:19:27;7.68;;;3.42;;
17598;SDS011;8918;52.092;5.232;2023-06-14T03:21:52;7.88;;;3.08;;
17598;SDS011;8918;52.092;5.232;2023-06-14T03:24:21;4.43;;;3.28;;
17598;SDS011;8918;52.092;5.232;2023-06-14T03:26:47;4.65;;;3.33;;
17598;SDS011;8918;52.092;5.232;2023-06-14T03:29:13;6.63;;;3.60;;
17598;SDS011;8918;52.092;5.232;2023-06-14T03:31:42;6.45;;;3.72;;
17598;SDS011;8918;52.092;5.232;2023-06-14T03:34:25;7.22;;;3.40;;
17598;SDS011;8918;52.092;5.232;2023-06-14T03:36:51;5.95;;;3.08;;
17598;SDS011;8918;52.092;5.232;2023-06-14T03:39:16;5.53;;;3.22;;
17598;SDS011;8918;52.092;5.232;2023-06-14T03:41:42;5.18;;;3.33;;
17598;SDS011;8918;52.092;5.232;2023-06-14T03:44:07;6.60;;;3.17;;
17598;SDS011;8918;52.092;5.232;2023-06-14T03:46:33;6.88;;;3.28;;
17598;SDS011;8918;52.092;5.232;2023-06-14T03:48:58;5.60;;;3.10;;
17598;SDS011;8918;52.092;5.232;2023-06-14T03:51:25;6.55;;;3.40;;
17598;SDS011;8918;52.092;5.232;2023-06-14T03:53:51;6.45;;;3.28;;
17598;SDS011;8918;52.092;5.232;2023-06-14T03:56:16;6.85;;;3.53;;
17598;SDS011;8918;52.092;5.232;2023-06-14T03:58:42;4.72;;;3.25;;
17598;SDS011;8918;52.092;5.232;2023-06-14T04:01:07;6.20;;;3.10;;
17598;SDS011;8918;52.092;5.232;2023-06-14T04:03:33;7.05;;;2.97;;
17598;SDS011;8918;52.092;5.232;2023-06-14T04:05:59;8.02;;;3.40;;
17598;SDS011;8918;52.092;5.232;2023-06-14T04:08:25;4.38;;;3.30;;
17598;SDS011;8918;52.092;5.232;2023-06-14T04:10:50;5.13;;;3.30;;
17598;SDS011;8918;52.092;5.232;2023-06-14T04:13:16;5.88;;;2.92;;
17598;SDS011;8918;52.092;5.232;2023-06-14T04:15:42;6.55;;;3.45;;
17598;SDS011;8918;52.092;5.232;2023-06-14T04:18:09;7.43;;;3.45;;
17598;SDS011;8918;52.092;5.232;2023-06-14T04:20:34;4.65;;;3.00;;
17598;SDS011;8918;52.092;5.232;2023-06-14T04:23:13;4.47;;;3.53;;
17598;SDS011;8918;52.092;5.232;2023-06-14T04:25:46;6.82;;;3.13;;
17598;SDS011;8918;52.092;5.232;2023-06-14T04:28:13;4.10;;;2.72;;
17598;SDS011;8918;52.092;5.232;2023-06-14T04:30:40;6.40;;;3.20;;
17598;SDS011;8918;52.092;5.232;2023-06-14T04:33:06;7.88;;;3.20;;
17598;SDS011;8918;52.092;5.232;2023-06-14T04:35:32;7.57;;;3.38;;
17598;SDS011;8918;52.092;5.232;2023-06-14T04:38:01;3.78;;;3.00;;
17598;SDS011;8918;52.092;5.232;2023-06-14T04:40:29;5.55;;;3.40;;
17598;SDS011;8918;52.092;5.232;2023-06-14T04:42:55;5.30;;;3.30;;
17598;SDS011;8918;52.092;5.232;2023-06-14T04:45:20;8.13;;;3.30;;
17598;SDS011;8918;52.092;5.232;2023-06-14T04:47:47;12.07;;;3.30;;
17598;SDS011;8918;52.092;5.232;2023-06-14T04:50:13;5.95;;;3.10;;
17598;SDS011;8918;52.092;5.232;2023-06-14T04:52:39;4.70;;;3.38;;
17598;SDS011;8918;52.092;5.232;2023-06-14T04:55:05;5.20;;;3.13;;
17598;SDS011;8918;52.092;5.232;2023-06-14T04:57:31;6.65;;;3.50;;
17598;SDS011;8918;52.092;5.232;2023-06-14T04:59:57;7.22;;;3.28;;
17598;SDS011;8918;52.092;5.232;2023-06-14T05:02:23;4.60;;;3.22;;
17598;SDS011;8918;52.092;5.232;2023-06-14T05:04:49;5.18;;;3.03;;
17598;SDS011;8918;52.092;5.232;2023-06-14T05:07:15;6.40;;;3.67;;
17598;SDS011;8918;52.092;5.232;2023-06-14T05:09:41;7.32;;;3.42;;
17598;SDS011;8918;52.092;5.232;2023-06-14T05:12:07;4.63;;;3.35;;
17598;SDS011;8918;52.092;5.232;2023-06-14T05:14:33;4.95;;;3.45;;
17598;SDS011;8918;52.092;5.232;2023-06-14T05:16:59;10.20;;;4.00;;
17598;SDS011;8918;52.092;5.232;2023-06-14T05:19:25;6.32;;;3.70;;
17598;SDS011;8918;52.092;5.232;2023-06-14T05:21:51;27.85;;;5.60;;
17598;SDS011;8918;52.092;5.232;2023-06-14T05:24:18;7.25;;;4.07;;
17598;SDS011;8918;52.092;5.232;2023-06-14T05:26:43;8.40;;;3.42;;
17598;SDS011;8918;52.092;5.232;2023-06-14T05:29:09;6.75;;;3.60;;
17598;SDS011;8918;52.092;5.232;2023-06-14T05:31:35;6.35;;;3.63;;
17598;SDS011;8918;52.092;5.232;2023-06-14T05:34:00;7.85;;;3.70;;
17598;SDS011;8918;52.092;5.232;2023-06-14T05:36:26;6.15;;;3.40;;
17598;SDS011;8918;52.092;5.232;2023-06-14T05:38:52;19.00;;;4.15;;
17598;SDS011;8918;52.092;5.232;2023-06-14T05:41:28;6.47;;;3.78;;
17598;SDS011;8918;52.092;5.232;2023-06-14T05:43:54;5.95;;;3.28;;
17598;SDS011;8918;52.092;5.232;2023-06-14T05:46:20;12.85;;;4.15;;
17598;SDS011;8918;52.092;5.232;2023-06-14T05:48:49;7.28;;;3.88;;
17598;SDS011;8918;52.092;5.232;2023-06-14T05:51:15;5.35;;;3.40;;
17598;SDS011;8918;52.092;5.232;2023-06-14T05:53:44;5.40;;;3.40;;
17598;SDS011;8918;52.092;5.232;2023-06-14T05:56:13;9.73;;;3.38;;
17598;SDS011;8918;52.092;5.232;2023-06-14T05:58:40;5.63;;;3.45;;
17598;SDS011;8918;52.092;5.232;2023-06-14T06:01:05;5.88;;;3.40;;
17598;SDS011;8918;52.092;5.232;2023-06-14T06:03:31;6.20;;;3.78;;
17598;SDS011;8918;52.092;5.232;2023-06-14T06:05:57;9.82;;;3.72;;
17598;SDS011;8918;52.092;5.232;2023-06-14T06:08:23;8.55;;;3.97;;
17598;SDS011;8918;52.092;5.232;2023-06-14T06:10:49;4.47;;;3.25;;
17598;SDS011;8918;52.092;5.232;2023-06-14T06:13:15;6.53;;;3.60;;
17598;SDS011;8918;52.092;5.232;2023-06-14T06:15:40;4.40;;;3.30;;
17598;SDS011;8918;52.092;5.232;2023-06-14T06:18:06;7.90;;;3.95;;
17598;SDS011;8918;52.092;5.232;2023-06-14T06:20:32;5.10;;;3.35;;
17598;SDS011;8918;52.092;5.232;2023-06-14T06:22:57;7.80;;;3.63;;
17598;SDS011;8918;52.092;5.232;2023-06-14T06:25:23;7.97;;;3.97;;
17598;SDS011;8918;52.092;5.232;2023-06-14T06:27:50;12.20;;;4.40;;
17598;SDS011;8918;52.092;5.232;2023-06-14T06:30:17;7.00;;;3.60;;
17598;SDS011;8918;52.092;5.232;2023-06-14T06:32:43;7.57;;;3.40;;
17598;SDS011;8918;52.092;5.232;2023-06-14T06:35:08;6.65;;;3.47;;
17598;SDS011;8918;52.092;5.232;2023-06-14T06:37:35;11.05;;;3.90;;
17598;SDS011;8918;52.092;5.232;2023-06-14T06:40:02;10.77;;;3.40;;
17598;SDS011;8918;52.092;5.232;2023-06-14T06:42:30;7.57;;;3.88;;
17598;SDS011;8918;52.092;5.232;2023-06-14T06:44:56;5.57;;;4.10;;
17598;SDS011;8918;52.092;5.232;2023-06-14T06:47:22;6.95;;;3.58;;
17598;SDS011;8918;52.092;5.232;2023-06-14T06:49:48;7.07;;;3.67;;
17598;SDS011;8918;52.092;5.232;2023-06-14T06:52:13;9.50;;;3.85;;
17598;SDS011;8918;52.092;5.232;2023-06-14T06:54:39;8.38;;;3.70;;
17598;SDS011;8918;52.092;5.232;2023-06-14T06:57:05;5.22;;;3.20;;
17598;SDS011;8918;52.092;5.232;2023-06-14T06:59:31;10.60;;;4.13;;
17598;SDS011;8918;52.092;5.232;2023-06-14T07:01:57;7.43;;;3.42;;
17598;SDS011;8918;52.092;5.232;2023-06-14T07:04:23;6.30;;;3.67;;
17598;SDS011;8918;52.092;5.232;2023-06-14T07:06:49;3.83;;;3.42;;
17598;SDS011;8918;52.092;5.232;2023-06-14T07:09:15;4.00;;;3.50;;
17598;SDS011;8918;52.092;5.232;2023-06-14T07:11:44;9.40;;;3.50;;
17598;SDS011;8918;52.092;5.232;2023-06-14T07:14:10;6.25;;;3.40;;
17598;SDS011;8918;52.092;5.232;2023-06-14T07:16:36;4.82;;;3.53;;
17598;SDS011;8918;52.092;5.232;2023-06-14T07:19:02;4.95;;;3.67;;
17598;SDS011;8918;52.092;5.232;2023-06-14T07:21:28;5.22;;;3.38;;
17598;SDS011;8918;52.092;5.232;2023-06-14T07:23:54;4.30;;;3.45;;
17598;SDS011;8918;52.092;5.232;2023-06-14T07:26:20;6.55;;;3.70;;
17598;SDS011;8918;52.092;5.232;2023-06-14T07:28:46;8.38;;;3.75;;
17598;SDS011;8918;52.092;5.232;2023-06-14T07:31:13;4.88;;;3.90;;
17598;SDS011;8918;52.092;5.232;2023-06-14T07:33:40;6.50;;;3.72;;
17598;SDS011;8918;52.092;5.232;2023-06-14T07:36:07;9.13;;;4.00;;
17598;SDS011;8918;52.092;5.232;2023-06-14T07:38:32;9.45;;;3.47;;
17598;SDS011;8918;52.092;5.232;2023-06-14T07:40:58;10.13;;;3.70;;
17598;SDS011;8918;52.092;5.232;2023-06-14T07:43:24;4.90;;;3.72;;
17598;SDS011;8918;52.092;5.232;2023-06-14T07:45:50;6.80;;;3.72;;
17598;SDS011;8918;52.092;5.232;2023-06-14T07:48:16;6.60;;;3.42;;
17598;SDS011;8918;52.092;5.232;2023-06-14T07:50:41;6.25;;;3.70;;
17598;SDS011;8918;52.092;5.232;2023-06-14T07:53:07;8.23;;;3.53;;
17598;SDS011;8918;52.092;5.232;2023-06-14T07:55:32;3.72;;;3.10;;
17598;SDS011;8918;52.092;5.232;2023-06-14T07:58:01;6.35;;;3.33;;
17598;SDS011;8918;52.092;5.232;2023-06-14T08:00:33;7.32;;;3.80;;
17598;SDS011;8918;52.092;5.232;2023-06-14T08:02:59;5.07;;;3.40;;
17598;SDS011;8918;52.092;5.232;2023-06-14T08:05:25;3.70;;;3.10;;
17598;SDS011;8918;52.092;5.232;2023-06-14T08:07:51;5.63;;;3.10;;
17598;SDS011;8918;52.092;5.232;2023-06-14T08:10:17;9.20;;;3.03;;
17598;SDS011;8918;52.092;5.232;2023-06-14T08:12:42;5.72;;;3.40;;
17598;SDS011;8918;52.092;5.232;2023-06-14T08:15:08;7.95;;;2.90;;
17598;SDS011;8918;52.092;5.232;2023-06-14T08:17:34;5.90;;;2.67;;
17598;SDS011;8918;52.092;5.232;2023-06-14T08:20:00;4.90;;;3.10;;
17598;SDS011;8918;52.092;5.232;2023-06-14T08:22:26;5.75;;;2.80;;
17598;SDS011;8918;52.092;5.232;2023-06-14T08:24:53;3.38;;;2.83;;
17598;SDS011;8918;52.092;5.232;2023-06-14T08:27:19;5.50;;;2.92;;
17598;SDS011;8918;52.092;5.232;2023-06-14T08:29:45;5.55;;;2.97;;
17598;SDS011;8918;52.092;5.232;2023-06-14T08:32:11;5.57;;;2.85;;
17598;SDS011;8918;52.092;5.232;2023-06-14T08:34:37;3.00;;;2.50;;
17598;SDS011;8918;52.092;5.232;2023-06-14T08:37:03;6.38;;;2.88;;
17598;SDS011;8918;52.092;5.232;2023-06-14T08:39:29;4.25;;;2.60;;
17598;SDS011;8918;52.092;5.232;2023-06-14T08:41:54;5.88;;;2.70;;
17598;SDS011;8918;52.092;5.232;2023-06-14T08:44:22;5.80;;;2.78;;
17598;SDS011;8918;52.092;5.232;2023-06-14T08:46:48;4.72;;;2.80;;
17598;SDS011;8918;52.092;5.232;2023-06-14T08:49:16;3.65;;;2.55;;
17598;SDS011;8918;52.092;5.232;2023-06-14T08:51:42;3.00;;;2.55;;
17598;SDS011;8918;52.092;5.232;2023-06-14T08:54:09;3.35;;;2.20;;
17598;SDS011;8918;52.092;5.232;2023-06-14T08:56:37;6.05;;;2.50;;
17598;SDS011;8918;52.092;5.232;2023-06-14T08:59:04;4.13;;;2.42;;
17598;SDS011;8918;52.092;5.232;2023-06-14T09:01:34;3.92;;;2.55;;
17598;SDS011;8918;52.092;5.232;2023-06-14T09:04:01;4.63;;;2.72;;
17598;SDS011;8918;52.092;5.232;2023-06-14T09:06:27;3.97;;;2.53;;
17598;SDS011;8918;52.092;5.232;2023-06-14T09:08:54;5.15;;;2.38;;
17598;SDS011;8918;52.092;5.232;2023-06-14T09:11:22;4.38;;;2.35;;
17598;SDS011;8918;52.092;5.232;2023-06-14T09:13:48;3.72;;;2.15;;
17598;SDS011;8918;52.092;5.232;2023-06-14T09:16:15;4.55;;;2.42;;
17598;SDS011;8918;52.092;5.232;2023-06-14T09:18:45;2.75;;;2.20;;
17598;SDS011;8918;52.092;5.232;2023-06-14T09:21:15;5.95;;;2.10;;
17598;SDS011;8918;52.092;5.232;2023-06-14T09:23:42;5.88;;;2.22;;
17598;SDS011;8918;52.092;5.232;2023-06-14T09:26:15;4.80;;;2.10;;
17598;SDS011;8918;52.092;5.232;2023-06-14T09:28:43;5.60;;;2.25;;
17598;SDS011;8918;52.092;5.232;2023-06-14T09:31:13;7.68;;;2.25;;
17598;SDS011;8918;52.092;5.232;2023-06-14T09:33:44;5.65;;;2.00;;
17598;SDS011;8918;52.092;5.232;2023-06-14T09:36:14;4.82;;;2.00;;
17598;SDS011;8918;52.092;5.232;2023-06-14T09:38:55;3.92;;;2.00;;
17598;SDS011;8918;52.092;5.232;2023-06-14T09:41:32;5.45;;;2.00;;
17598;SDS011;8918;52.092;5.232;2023-06-14T09:43:58;4.25;;;2.20;;
17598;SDS011;8918;52.092;5.232;2023-06-14T09:46:33;2.47;;;1.90;;
17598;SDS011;8918;52.092;5.232;2023-06-14T09:49:00;4.25;;;1.90;;
17598;SDS011;8918;52.092;5.232;2023-06-14T09:51:27;3.38;;;1.95;;
17598;SDS011;8918;52.092;5.232;2023-06-14T09:53:55;2.70;;;2.08;;
17598;SDS011;8918;52.092;5.232;2023-06-14T09:56:28;4.47;;;2.30;;
17598;SDS011;8918;52.092;5.232;2023-06-14T09:58:56;2.70;;;2.15;;
17598;SDS011;8918;52.092;5.232;2023-06-14T10:01:26;3.58;;;2.05;;
17598;SDS011;8918;52.092;5.232;2023-06-14T10:03:55;3.22;;;2.03;;
17598;SDS011;8918;52.092;5.232;2023-06-14T10:06:29;5.38;;;2.00;;
17598;SDS011;8918;52.092;5.232;2023-06-14T10:08:57;4.00;;;2.13;;
17598;SDS011;8918;52.092;5.232;2023-06-14T10:11:25;4.00;;;2.08;;
17598;SDS011;8918;52.092;5.232;2023-06-14T10:13:52;7.13;;;2.17;;
17598;SDS011;8918;52.092;5.232;2023-06-14T10:16:27;5.53;;;1.95;;
17598;SDS011;8918;52.092;5.232;2023-06-14T10:19:09;3.83;;;2.17;;
17598;SDS011;8918;52.092;5.232;2023-06-14T10:21:58;3.17;;;1.90;;
17598;SDS011;8918;52.092;5.232;2023-06-14T10:24:30;2.80;;;2.22;;
17598;SDS011;8918;52.092;5.232;2023-06-14T10:26:59;4.07;;;2.10;;
17598;SDS011;8918;52.092;5.232;2023-06-14T10:29:26;5.05;;;1.90;;
17598;SDS011;8918;52.092;5.232;2023-06-14T10:31:57;4.68;;;1.90;;
17598;SDS011;8918;52.092;5.232;2023-06-14T10:34:27;2.90;;;1.77;;
17598;SDS011;8918;52.092;5.232;2023-06-14T10:37:01;5.03;;;2.05;;
17598;SDS011;8918;52.092;5.232;2023-06-14T10:39:30;3.47;;;1.83;;
17598;SDS011;8918;52.092;5.232;2023-06-14T10:41:57;2.95;;;2.10;;
17598;SDS011;8918;52.092;5.232;2023-06-14T10:46:55;3.67;;;1.90;;
17598;SDS011;8918;52.092;5.232;2023-06-14T10:49:36;2.83;;;1.70;;
17598;SDS011;8918;52.092;5.232;2023-06-14T10:52:10;3.97;;;2.00;;
17598;SDS011;8918;52.092;5.232;2023-06-14T10:57:24;4.53;;;2.00;;
17598;SDS011;8918;52.092;5.232;2023-06-14T10:59:50;3.38;;;1.95;;
17598;SDS011;8918;52.092;5.232;2023-06-14T11:04:48;3.67;;;2.10;;
17598;SDS011;8918;52.092;5.232;2023-06-14T11:10:33;4.13;;;2.10;;
17598;SDS011;8918;52.092;5.232;2023-06-14T11:13:05;3.15;;;2.20;;
17598;SDS011;8918;52.092;5.232;2023-06-14T11:15:35;3.85;;;2.00;;
17598;SDS011;8918;52.092;5.232;2023-06-14T11:18:05;4.18;;;1.90;;
17598;SDS011;8918;52.092;5.232;2023-06-14T11:20:32;2.78;;;1.80;;
17598;SDS011;8918;52.092;5.232;2023-06-14T11:22:59;3.25;;;1.98;;
17598;SDS011;8918;52.092;5.232;2023-06-14T11:25:25;3.90;;;1.90;;
17598;SDS011;8918;52.092;5.232;2023-06-14T11:27:53;5.82;;;2.08;;
17598;SDS011;8918;52.092;5.232;2023-06-14T11:30:19;1.85;;;1.75;;
17598;SDS011;8918;52.092;5.232;2023-06-14T11:32:48;3.05;;;1.85;;
17598;SDS011;8918;52.092;5.232;2023-06-14T11:35:15;3.38;;;1.90;;
17598;SDS011;8918;52.092;5.232;2023-06-14T11:37:42;2.25;;;1.90;;
17598;SDS011;8918;52.092;5.232;2023-06-14T11:40:09;5.72;;;1.83;;
17598;SDS011;8918;52.092;5.232;2023-06-14T11:42:37;4.10;;;2.00;;
17598;SDS011;8918;52.092;5.232;2023-06-14T11:45:03;3.63;;;2.00;;
17598;SDS011;8918;52.092;5.232;2023-06-14T11:47:32;3.88;;;1.98;;
17598;SDS011;8918;52.092;5.232;2023-06-14T11:50:02;4.55;;;1.98;;
17598;SDS011;8918;52.092;5.232;2023-06-14T11:52:29;2.53;;;1.88;;
17598;SDS011;8918;52.092;5.232;2023-06-14T11:54:55;5.15;;;2.20;;
17598;SDS011;8918;52.092;5.232;2023-06-14T11:57:22;5.45;;;2.00;;
17598;SDS011;8918;52.092;5.232;2023-06-14T11:59:49;2.85;;;1.90;;
17598;SDS011;8918;52.092;5.232;2023-06-14T12:02:15;2.25;;;1.95;;
17598;SDS011;8918;52.092;5.232;2023-06-14T12:04:41;2.60;;;1.90;;
17598;SDS011;8918;52.092;5.232;2023-06-14T12:07:14;4.80;;;2.17;;
17598;SDS011;8918;52.092;5.232;2023-06-14T12:09:42;3.58;;;2.08;;
17598;SDS011;8918;52.092;5.232;2023-06-14T12:12:31;3.08;;;2.00;;
17598;SDS011;8918;52.092;5.232;2023-06-14T12:15:02;2.72;;;2.08;;
17598;SDS011;8918;52.092;5.232;2023-06-14T12:17:31;4.40;;;2.08;;
17598;SDS011;8918;52.092;5.232;2023-06-14T12:20:19;2.25;;;1.90;;
17598;SDS011;8918;52.092;5.232;2023-06-14T12:22:50;5.43;;;2.00;;
17598;SDS011;8918;52.092;5.232;2023-06-14T12:25:32;3.53;;;2.10;;
17598;SDS011;8918;52.092;5.232;2023-06-14T12:28:07;2.75;;;1.88;;
17598;SDS011;8918;52.092;5.232;2023-06-14T12:30:36;2.58;;;2.00;;
17598;SDS011;8918;52.092;5.232;2023-06-14T12:33:02;5.10;;;2.10;;
17598;SDS011;8918;52.092;5.232;2023-06-14T12:35:29;5.22;;;2.10;;
17598;SDS011;8918;52.092;5.232;2023-06-14T12:37:55;3.20;;;1.92;;
17598;SDS011;8918;52.092;5.232;2023-06-14T12:40:21;4.40;;;1.85;;
17598;SDS011;8918;52.092;5.232;2023-06-14T12:42:47;3.95;;;1.80;;
17598;SDS011;8918;52.092;5.232;2023-06-14T12:45:13;3.83;;;1.92;;
17598;SDS011;8918;52.092;5.232;2023-06-14T12:47:39;3.15;;;1.98;;
17598;SDS011;8918;52.092;5.232;2023-06-14T12:50:05;11.45;;;2.70;;
17598;SDS011;8918;52.092;5.232;2023-06-14T12:52:31;18.00;;;4.20;;
17598;SDS011;8918;52.092;5.232;2023-06-14T12:55:00;3.67;;;2.22;;
17598;SDS011;8918;52.092;5.232;2023-06-14T12:57:26;4.25;;;1.80;;
17598;SDS011;8918;52.092;5.232;2023-06-14T12:59:52;4.45;;;2.00;;
17598;SDS011;8918;52.092;5.232;2023-06-14T13:02:19;2.03;;;1.80;;
17598;SDS011;8918;52.092;5.232;2023-06-14T13:04:47;6.15;;;2.20;;
17598;SDS011;8918;52.092;5.232;2023-06-14T13:07:13;2.03;;;1.80;;
17598;SDS011;8918;52.092;5.232;2023-06-14T13:09:40;2.22;;;1.70;;
17598;SDS011;8918;52.092;5.232;2023-06-14T13:12:06;8.48;;;2.17;;
17598;SDS011;8918;52.092;5.232;2023-06-14T13:14:32;2.90;;;1.90;;
17598;SDS011;8918;52.092;5.232;2023-06-14T13:16:57;3.85;;;2.00;;
17598;SDS011;8918;52.092;5.232;2023-06-14T13:19:23;5.78;;;2.00;;
17598;SDS011;8918;52.092;5.232;2023-06-14T13:21:49;8.82;;;2.22;;
17598;SDS011;8918;52.092;5.232;2023-06-14T13:24:14;2.25;;;1.80;;
17598;SDS011;8918;52.092;5.232;2023-06-14T13:26:40;4.43;;;1.90;;
17598;SDS011;8918;52.092;5.232;2023-06-14T13:29:06;4.68;;;1.73;;
17598;SDS011;8918;52.092;5.232;2023-06-14T13:31:31;3.80;;;1.95;;
17598;SDS011;8918;52.092;5.232;2023-06-14T13:33:57;4.53;;;2.17;;
17598;SDS011;8918;52.092;5.232;2023-06-14T13:36:23;4.38;;;1.80;;
17598;SDS011;8918;52.092;5.232;2023-06-14T13:38:49;3.03;;;1.60;;
17598;SDS011;8918;52.092;5.232;2023-06-14T13:41:16;2.13;;;1.70;;
17598;SDS011;8918;52.092;5.232;2023-06-14T13:43:42;4.72;;;1.52;;
17598;SDS011;8918;52.092;5.232;2023-06-14T13:46:07;2.70;;;1.77;;
17598;SDS011;8918;52.092;5.232;2023-06-14T13:48:33;2.80;;;1.75;;
17598;SDS011;8918;52.092;5.232;2023-06-14T13:50:59;3.92;;;2.00;;
17598;SDS011;8918;52.092;5.232;2023-06-14T13:53:25;5.35;;;2.30;;
17598;SDS011;8918;52.092;5.232;2023-06-14T13:55:51;4.00;;;1.95;;
17598;SDS011;8918;52.092;5.232;2023-06-14T13:58:17;5.13;;;2.10;;
17598;SDS011;8918;52.092;5.232;2023-06-14T14:00:43;2.00;;;1.60;;
17598;SDS011;8918;52.092;5.232;2023-06-14T14:03:09;2.85;;;2.00;;
17598;SDS011;8918;52.092;5.232;2023-06-14T14:05:34;4.80;;;2.17;;
17598;SDS011;8918;52.092;5.232;2023-06-14T14:08:00;2.58;;;1.70;;
17598;SDS011;8918;52.092;5.232;2023-06-14T14:10:26;3.35;;;2.10;;
17598;SDS011;8918;52.092;5.232;2023-06-14T14:12:52;3.38;;;2.08;;
17598;SDS011;8918;52.092;5.232;2023-06-14T14:15:19;3.15;;;1.90;;
17598;SDS011;8918;52.092;5.232;2023-06-14T14:17:45;4.82;;;2.17;;
17598;SDS011;8918;52.092;5.232;2023-06-14T14:20:12;2.50;;;1.80;;
17598;SDS011;8918;52.092;5.232;2023-06-14T14:22:40;2.80;;;2.03;;
17598;SDS011;8918;52.092;5.232;2023-06-14T14:25:08;4.68;;;2.10;;
17598;SDS011;8918;52.092;5.232;2023-06-14T14:27:35;3.80;;;2.10;;
17598;SDS011;8918;52.092;5.232;2023-06-14T14:30:02;2.10;;;1.73;;
17598;SDS011;8918;52.092;5.232;2023-06-14T14:32:28;4.10;;;1.88;;
17598;SDS011;8918;52.092;5.232;2023-06-14T14:34:54;2.63;;;1.90;;
17598;SDS011;8918;52.092;5.232;2023-06-14T14:37:19;3.42;;;1.95;;
17598;SDS011;8918;52.092;5.232;2023-06-14T14:39:45;2.13;;;1.70;;
17598;SDS011;8918;52.092;5.232;2023-06-14T14:42:11;2.25;;;1.80;;
17598;SDS011;8918;52.092;5.232;2023-06-14T14:44:37;3.22;;;2.00;;
17598;SDS011;8918;52.092;5.232;2023-06-14T14:47:03;2.03;;;1.70;;
17598;SDS011;8918;52.092;5.232;2023-06-14T14:49:32;4.28;;;1.80;;
17598;SDS011;8918;52.092;5.232;2023-06-14T14:52:01;3.13;;;1.88;;
17598;SDS011;8918;52.092;5.232;2023-06-14T14:54:27;3.47;;;1.92;;
17598;SDS011;8918;52.092;5.232;2023-06-14T14:56:54;4.88;;;1.80;;
17598;SDS011;8918;52.092;5.232;2023-06-14T14:59:19;3.20;;;1.77;;
17598;SDS011;8918;52.092;5.232;2023-06-14T15:01:46;3.70;;;1.63;;
17598;SDS011;8918;52.092;5.232;2023-06-14T15:04:12;3.10;;;1.70;;
17598;SDS011;8918;52.092;5.232;2023-06-14T15:06:38;3.92;;;1.60;;
17598;SDS011;8918;52.092;5.232;2023-06-14T15:09:04;2.53;;;1.73;;
17598;SDS011;8918;52.092;5.232;2023-06-14T15:11:30;2.22;;;1.80;;
17598;SDS011;8918;52.092;5.232;2023-06-14T15:13:56;5.65;;;1.70;;